Maryland, Indiana
Current Conditions -  °F | °C
As of 4:26 AM on Monday 24 Nov 2014 (Local Time) from KHUF Reporting Station
Overcast Overcast  
Wind Chill: 56°   Ceiling: 2000
Heat Index: 56°   Visibility: 10mi
Dew Point: 53°   Wind: 13mph
Humidity: 90%   Direction: 190°S
Pressure: 29.19"   Gusts: NA
Location:  39.3587°N, 87.4056°W
Report Text: KHUF 240926Z 19011KT 10SM SCT009 BKN020 OVC026 13/12 A2919 RMK AO2 LTG DSNT E RAE13 P0000 T01330117 $
Loading
Personal Weather Stations






























Interactive Weather Map New forecast layout! Learn more

10-Day Weather Forecast

Advertisements
Track Severe Weather on mobile